createdAt,value
2019-03-16T00:03:01.461Z,98436.72
2019-03-16T00:06:03.392Z,98444.27
2019-03-16T00:09:06.048Z,98440.59
2019-03-16T00:12:07.988Z,98441.88
2019-03-16T00:15:09.957Z,98446.17
2019-03-16T00:18:11.873Z,98438.01
2019-03-16T00:21:13.802Z,98442.96
2019-03-16T00:24:15.765Z,98431.83
2019-03-16T00:27:17.715Z,98434.32
2019-03-16T00:30:19.780Z,98442.52
2019-03-16T00:33:21.674Z,98442.52
2019-03-16T00:36:23.639Z,98438.52
2019-03-16T00:39:25.557Z,98460.12
2019-03-16T00:42:28.116Z,98439.16
2019-03-16T00:45:30.720Z,98462.30
2019-03-16T00:48:32.684Z,98475.45
2019-03-16T00:51:34.604Z,98481.77
2019-03-16T00:54:36.514Z,98496.63
2019-03-16T00:57:38.598Z,98488.44
2019-03-16T01:00:40.694Z,98501.86
2019-03-16T01:03:42.635Z,98485.18
2019-03-16T01:06:44.910Z,98493.49
2019-03-16T01:09:47.919Z,98471.87
2019-03-16T01:12:49.885Z,98487.50
2019-03-16T01:15:51.806Z,98492.00
2019-03-16T01:18:53.712Z,98513.30
2019-03-16T01:21:55.591Z,98510.30
2019-03-16T01:24:57.496Z,98504.94
2019-03-16T01:27:59.901Z,98527.95
2019-03-16T01:31:01.828Z,98529.75
2019-03-16T01:34:03.759Z,98525.16
2019-03-16T01:37:05.669Z,98521.63
2019-03-16T01:40:09.211Z,98530.16
2019-03-16T01:43:11.140Z,98511.64
2019-03-16T01:46:13.708Z,98520.67
2019-03-16T01:49:15.597Z,98535.70
2019-03-16T01:52:17.460Z,98534.92
2019-03-16T01:55:19.383Z,98538.18
2019-03-16T01:58:21.351Z,98572.91
2019-03-16T02:01:23.383Z,98579.16
2019-03-16T02:04:25.318Z,98564.72
2019-03-16T02:07:27.305Z,98583.31
2019-03-16T02:10:29.337Z,98587.41
2019-03-16T02:13:31.262Z,98579.53
2019-03-16T02:16:33.678Z,98586.63
2019-03-16T02:19:36.141Z,98607.14
2019-03-16T02:22:38.422Z,98614.00
2019-03-16T02:25:40.308Z,98588.28
2019-03-16T02:28:42.319Z,98624.66
2019-03-16T02:31:44.283Z,98620.89
2019-03-16T02:34:46.225Z,98646.83
2019-03-16T02:37:48.104Z,98655.55
2019-03-16T02:40:50.121Z,98659.45
2019-03-16T02:43:52.073Z,98666.28
2019-03-16T02:46:54.398Z,98681.88
2019-03-16T02:49:56.389Z,98671.26
2019-03-16T02:52:58.347Z,98668.61
2019-03-16T02:56:01.368Z,98693.97
2019-03-16T02:59:03.286Z,98669.67
2019-03-16T03:02:05.309Z,98690.66
2019-03-16T03:05:08.911Z,98701.58
2019-03-16T03:08:10.924Z,98697.78
2019-03-16T03:11:12.872Z,98708.70
2019-03-16T03:14:14.743Z,98704.10
2019-03-16T03:17:16.638Z,98708.78
2019-03-16T03:20:18.594Z,98726.56
2019-03-16T03:23:20.527Z,98727.39
2019-03-16T03:26:22.431Z,98733.44
2019-03-16T03:29:24.367Z,98737.84
2019-03-16T03:32:26.366Z,98745.75
2019-03-16T03:35:29.452Z,98749.02
2019-03-16T03:38:31.794Z,98749.06
2019-03-16T03:41:34.276Z,98753.45
2019-03-16T03:44:36.232Z,98757.82
2019-03-16T03:47:38.178Z,98768.48
2019-03-16T03:50:40.097Z,98770.14
2019-03-16T03:53:42.083Z,98784.89
2019-03-16T03:56:43.988Z,98796.63
2019-03-16T03:59:46.344Z,98782.50
2019-03-16T04:02:48.374Z,98791.80
2019-03-16T04:05:50.350Z,98801.92
2019-03-16T04:08:52.543Z,98807.45
2019-03-16T04:11:54.460Z,98820.86
2019-03-16T04:14:56.451Z,98813.27
2019-03-16T04:17:58.350Z,98829.65
2019-03-16T04:21:00.271Z,98820.94
2019-03-16T04:24:02.228Z,98826.13
2019-03-16T04:27:15.776Z,98841.13
2019-03-16T04:30:10.081Z,98841.95
2019-03-16T04:33:12.147Z,98855.08
2019-03-16T04:36:14.031Z,98858.33
2019-03-16T04:39:16.002Z,98867.35
2019-03-16T04:42:17.954Z,98874.14
2019-03-16T04:45:19.823Z,98873.33
2019-03-16T04:48:22.396Z,98876.89
2019-03-16T04:51:24.326Z,98881.80
2019-03-16T04:54:26.265Z,98894.91
2019-03-16T04:57:28.146Z,98895.98
2019-03-16T05:00:30.290Z,98897.34
2019-03-16T05:03:32.478Z,98901.98
2019-03-16T05:06:34.465Z,98910.16
2019-03-16T05:09:36.389Z,98910.45
2019-03-16T05:12:38.541Z,98915.36
2019-03-16T05:15:40.495Z,98924.33
2019-03-16T05:18:42.639Z,98930.56
2019-03-16T05:21:44.520Z,98925.30
2019-03-16T05:24:46.481Z,98927.13
2019-03-16T05:27:48.834Z,98933.08
2019-03-16T05:30:50.710Z,98922.98
2019-03-16T05:33:52.715Z,98939.35
2019-03-16T05:36:56.051Z,98955.72
2019-03-16T05:39:58.345Z,98953.27
2019-03-16T05:43:00.197Z,98950.21
2019-03-16T05:46:02.274Z,98938.72
2019-03-16T05:49:04.171Z,98948.52
2019-03-16T05:52:06.740Z,98945.00
2019-03-16T05:55:08.835Z,98970.35
2019-03-16T05:58:10.823Z,98955.08
2019-03-16T06:01:12.746Z,98966.20
2019-03-16T06:04:14.802Z,98973.77
2019-03-16T06:07:16.706Z,98974.86
2019-03-16T06:10:18.724Z,98991.45
2019-03-16T06:13:20.642Z,98993.84
2019-03-16T06:16:22.558Z,99008.05
2019-03-16T06:19:24.514Z,99012.71
2019-03-16T06:22:26.431Z,99014.78
2019-03-16T06:25:28.399Z,99029.83
2019-03-16T06:28:30.335Z,99021.66
2019-03-16T06:31:32.359Z,99032.58
2019-03-16T06:34:34.318Z,99050.63
2019-03-16T06:37:36.283Z,99057.47
2019-03-16T06:40:38.198Z,99048.24
2019-03-16T06:43:40.246Z,99070.18
2019-03-16T06:46:42.150Z,99068.03
2019-03-16T06:49:44.101Z,99074.30
2019-03-16T06:52:46.163Z,99073.81
2019-03-16T06:55:48.161Z,99082.50
2019-03-16T06:58:50.082Z,99093.67
2019-03-16T07:01:52.239Z,99093.17
2019-03-16T07:04:54.344Z,99090.47
2019-03-16T07:07:56.353Z,99096.98
2019-03-16T07:10:58.305Z,99109.48
2019-03-16T07:14:01.339Z,99115.53
2019-03-16T07:17:03.271Z,99106.41
2019-03-16T07:20:08.103Z,99123.05
2019-03-16T07:23:10.083Z,99135.55
2019-03-16T07:26:15.092Z,99116.37
2019-03-16T07:29:16.100Z,99124.77
2019-03-16T07:32:18.067Z,99134.78
2019-03-16T07:35:20.086Z,99119.89
2019-03-16T07:38:22.039Z,99143.08
2019-03-16T07:41:23.991Z,99151.16
2019-03-16T07:44:25.910Z,99155.94
2019-03-16T07:47:27.866Z,99153.40
2019-03-16T07:50:29.796Z,99165.14
2019-03-16T07:53:31.797Z,99173.19
2019-03-16T07:56:33.714Z,99168.98
2019-03-16T07:59:37.241Z,99183.33
2019-03-16T08:02:39.512Z,99177.44
2019-03-16T08:05:42.288Z,99184.56
2019-03-16T08:08:46.247Z,99179.83
2019-03-16T08:11:48.117Z,99199.70
2019-03-16T08:14:50.052Z,99187.95
2019-03-16T08:17:52.074Z,99188.48
2019-03-16T08:20:53.981Z,99184.77
2019-03-16T08:23:56.127Z,99196.20
2019-03-16T08:26:58.046Z,99224.88
2019-03-16T08:30:00.015Z,99217.30
2019-03-16T08:33:01.901Z,99193.94
2019-03-16T08:36:04.016Z,99205.84
2019-03-16T08:39:06.428Z,99226.91
2019-03-16T08:42:08.510Z,99224.64
2019-03-16T08:45:10.545Z,99228.62
2019-03-16T08:48:22.360Z,99226.39
2019-03-16T08:51:16.457Z,99233.41
2019-03-16T08:54:18.410Z,99250.21
2019-03-16T08:57:20.332Z,99240.58
2019-03-16T09:00:22.348Z,99243.25
2019-03-16T09:03:24.304Z,99238.76
2019-03-16T09:06:28.474Z,99246.16
2019-03-16T09:09:30.423Z,99246.34
2019-03-16T09:12:32.383Z,99249.88
2019-03-16T09:15:34.435Z,99253.48
2019-03-16T09:18:36.415Z,99247.16
2019-03-16T09:21:38.352Z,99254.33
2019-03-16T09:24:41.421Z,99251.55
2019-03-16T09:27:43.317Z,99264.02
2019-03-16T09:30:45.485Z,99268.59
2019-03-16T09:33:47.424Z,99263.97
2019-03-16T09:36:49.409Z,99278.23
2019-03-16T09:39:51.551Z,99287.64
2019-03-16T09:42:53.559Z,99296.78
2019-03-16T09:45:55.521Z,99287.04
2019-03-16T09:48:57.495Z,99277.89
2019-03-16T09:51:59.473Z,99278.14
2019-03-16T09:55:01.388Z,99283.45
2019-03-16T09:58:03.403Z,99276.05
2019-03-16T10:01:05.367Z,99299.26
2019-03-16T10:04:07.314Z,99292.94
2019-03-16T10:07:09.427Z,99305.19
2019-03-16T10:10:14.612Z,99294.44
2019-03-16T10:13:16.620Z,99309.33
2019-03-16T10:16:18.716Z,99304.14
2019-03-16T10:19:20.672Z,99311.22
2019-03-16T10:22:22.760Z,99299.66
2019-03-16T10:25:24.699Z,99289.67
2019-03-16T10:28:26.691Z,99303.18
2019-03-16T10:31:28.679Z,99287.39
2019-03-16T10:34:30.659Z,99294.67
2019-03-16T10:37:32.778Z,99296.91
2019-03-16T10:40:34.801Z,99305.33
2019-03-16T10:43:36.710Z,99304.24
2019-03-16T10:46:38.637Z,99320.08
2019-03-16T10:49:40.577Z,99327.12
2019-03-16T10:52:42.547Z,99314.37
2019-03-16T10:55:44.565Z,99326.69
2019-03-16T10:58:55.980Z,99309.72
2019-03-16T11:01:50.498Z,99316.20
2019-03-16T11:04:52.495Z,99317.83
2019-03-16T11:07:55.838Z,99314.41
2019-03-16T11:10:58.044Z,99322.37
2019-03-16T11:14:00.007Z,99324.88
2019-03-16T11:17:01.968Z,99316.61
2019-03-16T11:20:07.604Z,99311.90
2019-03-16T11:23:09.636Z,99309.49
2019-03-16T11:26:11.688Z,99302.42
2019-03-16T11:29:13.797Z,99321.72
2019-03-16T11:32:15.773Z,99303.63
2019-03-16T11:35:17.790Z,99298.63
2019-03-16T11:38:19.902Z,99292.66
2019-03-16T11:41:21.877Z,99305.47
2019-03-16T11:44:23.858Z,99300.08
2019-03-16T11:47:25.869Z,99311.79
2019-03-16T11:50:27.832Z,99307.33
2019-03-16T11:53:30.018Z,99305.95
2019-03-16T11:56:32.003Z,99299.69
2019-03-16T11:59:33.961Z,99305.08
2019-03-16T12:02:35.859Z,99307.72
2019-03-16T12:05:37.801Z,99304.14
2019-03-16T12:08:39.950Z,99316.39
2019-03-16T12:11:41.944Z,99307.13
2019-03-16T12:14:43.874Z,99316.21
2019-03-16T12:17:46.079Z,99311.39
2019-03-16T12:20:48.003Z,99308.34
2019-03-16T12:23:49.960Z,99309.96
2019-03-16T12:26:51.925Z,99311.66
2019-03-16T12:29:53.877Z,99310.70
2019-03-16T12:32:55.836Z,99300.15
2019-03-16T12:35:58.000Z,99317.16
2019-03-16T12:39:00.036Z,99311.03
2019-03-16T12:42:02.029Z,99299.80
2019-03-16T12:45:10.485Z,99319.70
2019-03-16T12:48:12.372Z,99320.78
2019-03-16T12:51:14.305Z,99324.36
2019-03-16T12:54:16.238Z,99318.36
2019-03-16T12:57:18.212Z,99316.59
2019-03-16T13:00:20.222Z,99316.59
2019-03-16T13:03:22.283Z,99318.11
2019-03-16T13:06:25.511Z,99309.84
2019-03-16T13:09:30.486Z,99309.96
2019-03-16T13:12:32.452Z,99317.19
2019-03-16T13:15:34.365Z,99325.56
2019-03-16T13:18:36.910Z,99313.85
2019-03-16T13:21:38.989Z,99302.07
2019-03-16T13:24:41.003Z,99309.45
2019-03-16T13:27:42.949Z,99307.95
2019-03-16T13:30:44.942Z,99311.67
2019-03-16T13:33:47.023Z,99316.11
2019-03-16T13:36:49.047Z,99315.87
2019-03-16T13:39:51.169Z,99318.11
2019-03-16T13:42:53.238Z,99312.36
2019-03-16T13:45:55.199Z,99317.17
2019-03-16T13:48:57.154Z,99318.13
2019-03-16T13:51:59.084Z,99313.22
2019-03-16T13:55:01.466Z,99314.98
2019-03-16T13:58:04.946Z,99328.98
2019-03-16T14:01:07.012Z,99331.34
2019-03-16T14:04:08.985Z,99324.38
2019-03-16T14:07:12.274Z,99320.64
2019-03-16T14:10:19.192Z,99328.01
2019-03-16T14:13:21.158Z,99331.86
2019-03-16T14:16:23.149Z,99340.21
2019-03-16T14:19:25.472Z,99345.87
2019-03-16T14:22:28.592Z,99348.44
2019-03-16T14:25:30.584Z,99359.58
2019-03-16T14:28:33.076Z,99354.90
2019-03-16T14:31:35.296Z,99338.66
2019-03-16T14:34:37.253Z,99345.42
2019-03-16T14:37:39.563Z,99350.47
2019-03-16T14:40:41.641Z,99348.36
2019-03-16T14:43:43.555Z,99363.09
2019-03-16T14:46:45.519Z,99354.23
2019-03-16T14:49:47.473Z,99348.41
2019-03-16T14:52:49.395Z,99353.67
2019-03-16T14:55:51.318Z,99352.37
2019-03-16T14:58:53.315Z,99355.19
2019-03-16T15:01:55.329Z,99357.98
2019-03-16T15:04:57.232Z,99359.04
2019-03-16T15:07:59.162Z,99359.15
2019-03-16T15:11:01.276Z,99364.12
2019-03-16T15:14:03.522Z,99355.59
2019-03-16T15:17:05.435Z,99352.08
2019-03-16T15:20:09.692Z,99352.95
2019-03-16T15:23:11.673Z,99351.05
2019-03-16T15:26:13.728Z,99344.75
2019-03-16T15:29:15.670Z,99339.50
2019-03-16T15:32:17.703Z,99340.14
2019-03-16T15:35:19.654Z,99336.66
2019-03-16T15:38:22.176Z,99347.97
2019-03-16T15:41:24.172Z,99341.42
2019-03-16T15:44:26.104Z,99342.86
2019-03-16T15:47:29.999Z,99346.31
2019-03-16T15:50:31.932Z,99342.27
2019-03-16T15:53:33.956Z,99343.77
2019-03-16T15:56:35.980Z,99352.86
2019-03-16T15:59:39.717Z,99356.20
2019-03-16T16:02:41.758Z,99359.41
2019-03-16T16:05:43.761Z,99354.09
2019-03-16T16:08:45.855Z,99368.98
2019-03-16T16:11:48.071Z,99372.91
2019-03-16T16:14:50.078Z,99368.14
2019-03-16T16:17:52.094Z,99366.34
2019-03-16T16:20:54.157Z,99366.13
2019-03-16T16:23:56.088Z,99373.59
2019-03-16T16:26:57.997Z,99372.50
2019-03-16T16:30:03.867Z,99364.63
2019-03-16T16:33:06.324Z,99370.70
2019-03-16T16:36:08.683Z,99374.27
2019-03-16T16:39:14.495Z,99372.98
2019-03-16T16:42:16.853Z,99376.36
2019-03-16T16:45:18.867Z,99372.37
2019-03-16T16:48:21.419Z,99365.57
2019-03-16T16:51:23.417Z,99368.86
2019-03-16T16:54:25.379Z,99364.19
2019-03-16T16:57:27.297Z,99357.09
2019-03-16T17:00:29.274Z,99357.91
2019-03-16T17:03:31.261Z,99350.27
2019-03-16T17:06:33.198Z,99342.61
2019-03-16T17:09:35.397Z,99338.75
2019-03-16T17:12:37.574Z,99343.96
2019-03-16T17:15:39.484Z,99343.14
2019-03-16T17:18:42.491Z,99348.06
2019-03-16T17:21:44.784Z,99340.92
2019-03-16T17:24:46.747Z,99345.03
2019-03-16T17:27:48.709Z,99346.69
2019-03-16T17:30:51.822Z,99340.36
2019-03-16T17:33:54.864Z,99337.63
2019-03-16T17:36:56.748Z,99335.75
2019-03-16T17:40:00.512Z,99343.95
2019-03-16T17:43:02.532Z,99336.83
2019-03-16T17:46:04.470Z,99341.47
2019-03-16T17:49:06.412Z,99323.44
2019-03-16T17:52:08.397Z,99331.91
2019-03-16T17:55:12.889Z,99329.17
2019-03-16T17:58:14.881Z,99336.02
2019-03-16T18:01:16.951Z,99342.08
2019-03-16T18:04:19.452Z,99333.95
2019-03-16T18:07:21.525Z,99338.66
2019-03-16T18:10:23.487Z,99336.55
2019-03-16T18:13:27.480Z,99334.10
2019-03-16T18:16:29.445Z,99332.73
2019-03-16T18:19:31.505Z,99337.40
2019-03-16T18:22:33.974Z,99340.14
2019-03-16T18:25:37.743Z,99339.85
2019-03-16T18:28:40.130Z,99333.27
2019-03-16T18:31:42.105Z,99329.41
2019-03-16T18:34:44.143Z,99322.83
2019-03-16T18:37:46.078Z,99319.59
2019-03-16T18:40:48.041Z,99317.41
2019-03-16T18:43:50.128Z,99320.97
2019-03-16T18:46:52.269Z,99319.11
2019-03-16T18:49:54.593Z,99312.03
2019-03-16T18:52:56.593Z,99318.31
2019-03-16T18:56:01.297Z,99313.97
2019-03-16T18:59:03.301Z,99318.62
2019-03-16T19:02:05.297Z,99317.52
2019-03-16T19:05:11.019Z,99308.25
2019-03-16T19:08:13.062Z,99305.80
2019-03-16T19:11:15.323Z,99303.36
2019-03-16T19:14:18.220Z,99302.55
2019-03-16T19:17:21.930Z,99293.54
2019-03-16T19:20:26.996Z,99290.81
2019-03-16T19:23:32.722Z,99291.91
2019-03-16T19:26:34.682Z,99292.44
2019-03-16T19:29:38.588Z,99282.88
2019-03-16T19:32:43.124Z,99281.23
2019-03-16T19:35:45.660Z,99274.67
2019-03-16T19:38:47.972Z,99275.48
2019-03-16T19:41:52.451Z,99271.39
2019-03-16T19:44:57.053Z,99279.58
2019-03-16T19:48:01.822Z,99270.57
2019-03-16T19:51:04.404Z,99266.17
2019-03-16T19:54:06.733Z,99270.26
2019-03-16T19:57:15.871Z,99264.48
2019-03-16T20:00:14.358Z,99266.94
2019-03-16T20:03:16.267Z,99260.59
2019-03-16T20:06:25.778Z,99258.40
2019-03-16T20:09:24.701Z,99255.34
2019-03-16T20:12:30.711Z,99255.03
2019-03-16T20:15:32.873Z,99252.84
2019-03-16T20:18:36.515Z,99250.10
2019-03-16T20:21:40.104Z,99245.72
2019-03-16T20:24:43.823Z,99248.14
2019-03-16T20:27:45.992Z,99240.48
2019-03-16T20:30:48.106Z,99241.83
2019-03-16T20:33:51.960Z,99238.78
2019-03-16T20:36:53.905Z,99246.15
2019-03-16T20:39:55.984Z,99245.58
2019-03-16T20:42:58.117Z,99247.19
2019-03-16T20:46:00.576Z,99250.47
2019-03-16T20:49:02.560Z,99243.88
2019-03-16T20:52:04.588Z,99244.42
2019-03-16T20:55:07.947Z,99239.20
2019-03-16T20:58:09.948Z,99245.77
2019-03-16T21:01:12.027Z,99242.17
2019-03-16T21:04:14.093Z,99236.13
2019-03-16T21:07:16.603Z,99246.24
2019-03-16T21:10:18.839Z,99243.19
2019-03-16T21:13:25.032Z,99247.86
2019-03-16T21:16:27.111Z,99250.33
2019-03-16T21:19:29.595Z,99258.53
2019-03-16T21:22:38.543Z,99253.84
2019-03-16T21:25:37.000Z,99263.39
2019-03-16T21:28:39.505Z,99245.28
2019-03-16T21:31:41.441Z,99257.81
2019-03-16T21:34:43.548Z,99262.43
2019-03-16T21:37:45.627Z,99259.36
2019-03-16T21:40:48.849Z,99255.52
2019-03-16T21:43:50.827Z,99257.67
2019-03-16T21:46:53.906Z,99260.41
2019-03-16T21:49:56.794Z,99252.50
2019-03-16T21:52:58.787Z,99256.30
2019-03-16T21:56:00.791Z,99254.94
2019-03-16T21:59:02.737Z,99253.56
2019-03-16T22:02:06.349Z,99252.73
2019-03-16T22:05:08.942Z,99242.36
2019-03-16T22:08:11.542Z,99250.57
2019-03-16T22:11:13.519Z,99247.25
2019-03-16T22:14:15.513Z,99249.39
2019-03-16T22:17:17.581Z,99252.91
2019-03-16T22:20:20.433Z,99252.61
2019-03-16T22:23:22.490Z,99252.55
2019-03-16T22:26:24.426Z,99255.81
2019-03-16T22:29:26.309Z,99251.40
2019-03-16T22:32:28.270Z,99248.87
2019-03-16T22:35:30.270Z,99241.20
2019-03-16T22:38:32.260Z,99247.50
2019-03-16T22:41:34.196Z,99241.69
2019-03-16T22:44:36.115Z,99233.16
2019-03-16T22:47:38.116Z,99235.01
2019-03-16T22:50:40.141Z,99232.58
2019-03-16T22:53:42.087Z,99231.43
2019-03-16T22:56:44.013Z,99222.34
2019-03-16T22:59:46.000Z,99220.38
2019-03-16T23:02:47.958Z,99228.86
2019-03-16T23:05:49.879Z,99217.05
2019-03-16T23:08:51.872Z,99223.83
2019-03-16T23:11:53.833Z,99225.20
2019-03-16T23:15:09.614Z,99222.17
2019-03-16T23:18:11.667Z,99211.18
2019-03-16T23:21:13.708Z,99219.34
2019-03-16T23:24:15.707Z,99222.28
2019-03-16T23:27:17.660Z,99215.61
2019-03-16T23:30:19.570Z,99206.27
2019-03-16T23:33:21.622Z,99211.22
2019-03-16T23:36:24.763Z,99207.91
2019-03-16T23:39:27.521Z,99199.41
2019-03-16T23:42:29.426Z,99202.12
2019-03-16T23:45:31.446Z,99211.69
2019-03-16T23:48:33.524Z,99206.23
2019-03-16T23:51:35.627Z,99206.20
2019-03-16T23:54:37.632Z,99206.23
2019-03-16T23:57:39.873Z,99204.83
